createdAt,value
2018-07-12T00:00:15.613Z,79.70
2018-07-12T00:02:43.569Z,80.60
2018-07-12T00:05:11.654Z,79.10
2018-07-12T00:07:39.585Z,78.60
2018-07-12T00:12:35.660Z,78.80
2018-07-12T00:15:03.641Z,77.10
2018-07-12T00:17:31.552Z,77.70
2018-07-12T00:19:59.470Z,77.40
2018-07-12T00:22:27.421Z,77.50
2018-07-12T00:27:23.683Z,76.00
2018-07-12T00:29:51.678Z,77.40
2018-07-12T00:32:19.610Z,77.40
2018-07-12T00:34:47.598Z,79.30
2018-07-12T00:37:15.542Z,78.30
2018-07-12T00:39:43.480Z,79.30
2018-07-12T00:42:11.432Z,77.90
2018-07-12T00:44:39.390Z,78.60
2018-07-12T00:47:07.325Z,78.70
2018-07-12T00:49:35.246Z,77.70
2018-07-12T00:52:03.225Z,78.20
2018-07-12T00:54:31.182Z,80.40
2018-07-12T00:56:59.154Z,78.70
2018-07-12T00:59:27.101Z,79.10
2018-07-12T01:01:55.033Z,78.30
2018-07-12T01:04:22.969Z,81.30
2018-07-12T01:06:50.924Z,79.60
2018-07-12T01:09:18.888Z,81.90
2018-07-12T01:11:46.819Z,79.10
2018-07-12T01:14:14.883Z,79.10
2018-07-12T01:16:42.849Z,80.20
2018-07-12T01:19:10.896Z,80.00
2018-07-12T01:21:38.848Z,82.20
2018-07-12T01:24:06.791Z,80.30
2018-07-12T01:26:34.791Z,81.80
2018-07-12T01:29:02.721Z,81.40
2018-07-12T01:31:30.680Z,81.20
2018-07-12T01:33:58.613Z,80.80
2018-07-12T01:36:26.599Z,81.80
2018-07-12T01:38:54.553Z,80.50
2018-07-12T01:41:22.500Z,82.00
2018-07-12T01:43:50.502Z,80.50
2018-07-12T01:46:18.461Z,80.40
2018-07-12T01:48:46.405Z,83.20
2018-07-12T01:51:14.371Z,82.30
2018-07-12T01:53:42.342Z,83.30
2018-07-12T01:56:10.323Z,84.60
2018-07-12T02:01:06.392Z,81.50
2018-07-12T02:06:02.506Z,83.30
2018-07-12T02:08:30.436Z,80.00
2018-07-12T02:10:58.392Z,80.70
2018-07-12T02:13:26.460Z,82.10
2018-07-12T02:15:54.441Z,81.10
2018-07-12T02:18:22.366Z,84.10
2018-07-12T02:20:50.282Z,81.40
2018-07-12T02:23:18.248Z,81.50
2018-07-12T02:25:46.208Z,82.50
2018-07-12T02:28:14.136Z,80.90
2018-07-12T02:30:42.111Z,83.20
2018-07-12T02:33:10.067Z,82.80
2018-07-12T02:35:38.064Z,83.00
2018-07-12T02:38:06.050Z,83.00
2018-07-12T02:40:33.976Z,83.50
2018-07-12T02:43:01.888Z,82.30
2018-07-12T02:45:29.858Z,82.50
2018-07-12T02:47:57.808Z,82.00
2018-07-12T02:50:25.760Z,80.90
2018-07-12T02:52:53.731Z,81.30
2018-07-12T02:55:21.718Z,84.00
2018-07-12T02:57:49.678Z,84.60
2018-07-12T03:00:17.607Z,81.90
2018-07-12T03:02:45.639Z,82.80
2018-07-12T03:05:13.604Z,83.60
2018-07-12T03:07:41.544Z,81.90
2018-07-12T03:10:09.476Z,82.10
2018-07-12T03:12:37.428Z,82.90
2018-07-12T03:15:05.394Z,82.90
2018-07-12T03:17:35.074Z,84.40
2018-07-12T03:20:03.052Z,83.70
2018-07-12T03:22:31.010Z,83.00
2018-07-12T03:24:58.954Z,82.30
2018-07-12T03:27:26.908Z,83.10
2018-07-12T03:29:54.836Z,85.10
2018-07-12T03:32:22.891Z,83.80
2018-07-12T03:34:50.860Z,83.40
2018-07-12T03:37:18.796Z,85.00
2018-07-12T03:39:46.726Z,82.80
2018-07-12T03:42:14.650Z,82.50
2018-07-12T03:44:42.737Z,83.80
2018-07-12T03:47:10.681Z,84.20
2018-07-12T03:49:38.688Z,84.60
2018-07-12T03:52:06.648Z,82.70
2018-07-12T03:54:34.581Z,82.60
2018-07-12T03:57:02.546Z,85.50
2018-07-12T03:59:30.478Z,83.70
2018-07-12T04:01:58.428Z,84.70
2018-07-12T04:04:26.455Z,83.70
2018-07-12T04:06:54.879Z,83.40
2018-07-12T04:09:22.811Z,84.30
2018-07-12T04:11:51.323Z,84.60
2018-07-12T04:14:19.287Z,84.70
2018-07-12T04:19:15.449Z,84.80
2018-07-12T04:21:43.381Z,83.60
2018-07-12T04:24:11.313Z,85.60
2018-07-12T04:26:39.281Z,85.50
2018-07-12T04:29:07.269Z,84.50
2018-07-12T04:31:35.229Z,85.50
2018-07-12T04:34:03.185Z,86.30
2018-07-12T04:36:31.178Z,86.90
2018-07-12T04:38:59.172Z,85.90
2018-07-12T04:41:27.098Z,88.20
2018-07-12T04:43:55.045Z,85.30
2018-07-12T04:46:23.021Z,85.90
2018-07-12T04:48:51.013Z,85.90
2018-07-12T04:51:18.992Z,85.00
2018-07-12T04:53:46.947Z,87.50
2018-07-12T04:56:14.889Z,88.90
2018-07-12T04:58:42.859Z,86.20
2018-07-12T05:01:10.801Z,85.50
2018-07-12T05:03:38.729Z,86.50
2018-07-12T05:06:07.133Z,85.40
2018-07-12T05:11:03.217Z,88.50
2018-07-12T05:13:31.190Z,86.80
2018-07-12T05:15:59.158Z,87.90
2018-07-12T05:18:27.125Z,89.10
2018-07-12T05:20:55.057Z,90.00
2018-07-12T05:23:22.995Z,90.00
2018-07-12T05:25:50.951Z,88.00
2018-07-12T05:28:18.962Z,88.30
2018-07-12T05:30:47.299Z,88.70
2018-07-12T05:33:15.420Z,87.10
2018-07-12T05:35:44.430Z,86.80
2018-07-12T05:38:13.522Z,88.50
2018-07-12T05:40:42.493Z,87.90
2018-07-12T05:43:11.579Z,87.80
2018-07-12T05:45:40.664Z,88.40
2018-07-12T05:48:09.695Z,87.60
2018-07-12T05:50:42.877Z,88.50
2018-07-12T05:53:11.922Z,87.50
2018-07-12T05:55:40.915Z,88.80
2018-07-12T05:58:10.095Z,87.50
2018-07-12T06:00:39.174Z,86.90
2018-07-12T06:03:09.536Z,86.50
2018-07-12T06:05:38.797Z,86.70
2018-07-12T06:08:07.833Z,87.60
2018-07-12T06:10:36.847Z,86.60
2018-07-12T06:13:05.844Z,87.00
2018-07-12T06:15:34.800Z,86.90
2018-07-12T06:18:03.817Z,86.50
2018-07-12T06:20:32.807Z,86.50
2018-07-12T06:23:01.766Z,85.80
2018-07-12T06:25:30.751Z,85.60
2018-07-12T06:27:59.700Z,85.80
2018-07-12T06:30:28.740Z,85.90
2018-07-12T06:32:57.713Z,85.10
2018-07-12T06:35:26.684Z,85.30
2018-07-12T06:37:55.698Z,84.50
2018-07-12T06:40:24.709Z,85.00
2018-07-12T06:42:53.671Z,84.50
2018-07-12T06:45:22.694Z,85.10
2018-07-12T06:47:51.680Z,84.50
2018-07-12T06:50:20.699Z,84.70
2018-07-12T06:52:49.778Z,84.50
2018-07-12T06:57:48.848Z,83.80
2018-07-12T07:00:17.957Z,84.00
2018-07-12T07:02:46.918Z,83.30
2018-07-12T07:05:15.944Z,83.10
2018-07-12T07:07:45.002Z,82.30
2018-07-12T07:10:14.222Z,82.00
2018-07-12T07:12:43.194Z,81.70
2018-07-12T07:15:12.242Z,80.80
2018-07-12T07:17:41.340Z,81.10
2018-07-12T07:20:10.418Z,81.20
2018-07-12T07:25:08.786Z,81.10
2018-07-12T07:27:38.294Z,81.00
2018-07-12T07:30:07.426Z,80.60
2018-07-12T07:32:36.511Z,80.30
2018-07-12T07:35:05.552Z,80.80
2018-07-12T07:37:34.718Z,80.40
2018-07-12T07:40:03.918Z,79.20
2018-07-12T07:42:32.912Z,79.50
2018-07-12T07:45:01.904Z,79.50
2018-07-12T07:47:30.990Z,79.80
2018-07-12T07:50:00.038Z,79.80
2018-07-12T07:52:35.535Z,79.70
2018-07-12T07:55:04.542Z,79.50
2018-07-12T07:57:33.630Z,79.60
2018-07-12T08:00:02.652Z,79.10
2018-07-12T08:02:31.636Z,79.60
2018-07-12T08:05:00.598Z,78.50
2018-07-12T08:07:29.616Z,77.60
2018-07-12T08:09:58.634Z,77.60
2018-07-12T08:12:27.594Z,78.30
2018-07-12T08:14:56.583Z,77.90
2018-07-12T08:17:25.592Z,78.10
2018-07-12T08:19:54.628Z,77.80
2018-07-12T08:22:23.668Z,77.60
2018-07-12T08:24:52.678Z,77.90
2018-07-12T08:27:21.858Z,77.90
2018-07-12T08:29:50.945Z,77.10
2018-07-12T08:32:19.960Z,77.40
2018-07-12T08:34:48.957Z,76.80
2018-07-12T08:37:18.337Z,77.30
2018-07-12T08:39:48.112Z,77.30
2018-07-12T08:42:17.823Z,77.80
2018-07-12T08:44:49.341Z,77.50
2018-07-12T08:47:21.055Z,76.50
2018-07-12T08:49:56.897Z,75.60
2018-07-12T08:52:27.005Z,75.30
2018-07-12T08:54:58.222Z,73.00
2018-07-12T08:59:58.660Z,72.70
2018-07-12T09:02:32.692Z,72.90
2018-07-12T09:05:03.749Z,73.40
2018-07-12T09:07:34.722Z,73.10
2018-07-12T09:10:06.571Z,72.20
2018-07-12T09:12:37.114Z,72.80
2018-07-12T09:15:07.030Z,72.50
2018-07-12T09:17:37.790Z,73.70
2018-07-12T09:20:07.581Z,72.40
2018-07-12T09:22:37.928Z,71.30
2018-07-12T09:27:38.332Z,71.90
2018-07-12T09:30:08.336Z,70.70
2018-07-12T09:32:39.240Z,70.90
2018-07-12T09:35:08.975Z,70.30
2018-07-12T09:37:38.741Z,70.60
2018-07-12T09:40:08.735Z,72.80
2018-07-12T09:42:39.081Z,70.70
2018-07-12T09:45:09.258Z,69.20
2018-07-12T09:47:40.100Z,68.80
2018-07-12T09:50:10.207Z,67.40
2018-07-12T09:52:40.933Z,69.10
2018-07-12T09:55:11.192Z,68.20
2018-07-12T09:57:52.211Z,69.60
2018-07-12T10:00:26.287Z,69.70
2018-07-12T10:03:01.538Z,69.00
2018-07-12T10:05:36.356Z,69.20
2018-07-12T10:08:11.482Z,69.60
2018-07-12T10:11:45.504Z,68.70
2018-07-12T10:14:20.560Z,69.60
2018-07-12T10:17:55.992Z,70.30
2018-07-12T10:20:25.496Z,67.50
2018-07-12T10:22:55.104Z,68.40
2018-07-12T10:25:24.712Z,67.80
2018-07-12T10:27:54.217Z,67.20
2018-07-12T10:30:23.835Z,67.00
2018-07-12T10:32:53.228Z,67.80
2018-07-12T10:35:22.646Z,66.80
2018-07-12T10:37:52.238Z,67.60
2018-07-12T10:40:21.644Z,66.70
2018-07-12T10:42:50.945Z,66.10
2018-07-12T10:45:20.445Z,66.60
2018-07-12T10:47:49.951Z,64.30
2018-07-12T10:50:19.456Z,64.30
2018-07-12T10:52:49.063Z,65.90
2018-07-12T10:55:18.365Z,65.30
2018-07-12T10:57:47.665Z,66.70
2018-07-12T11:00:16.867Z,64.50
2018-07-12T11:02:45.921Z,63.30
2018-07-12T11:05:15.131Z,65.30
2018-07-12T11:07:44.201Z,64.00
2018-07-12T11:10:13.365Z,62.60
2018-07-12T11:12:42.401Z,64.90
2018-07-12T11:15:11.452Z,64.60
2018-07-12T11:17:40.496Z,62.20
2018-07-12T11:20:10.142Z,64.20
2018-07-12T11:22:39.175Z,61.50
2018-07-12T11:25:08.193Z,60.40
2018-07-12T11:27:37.215Z,60.60
2018-07-12T11:30:06.449Z,63.80
2018-07-12T11:32:35.499Z,64.80
2018-07-12T11:35:04.509Z,61.00
2018-07-12T11:37:33.577Z,60.20
2018-07-12T11:40:02.573Z,60.20
2018-07-12T11:42:31.591Z,62.90
2018-07-12T11:45:00.659Z,61.80
2018-07-12T11:47:29.661Z,59.80
2018-07-12T11:49:58.709Z,60.20
2018-07-12T11:52:27.681Z,59.00
2018-07-12T11:54:56.693Z,59.50
2018-07-12T11:57:25.759Z,59.90
2018-07-12T11:59:54.779Z,58.30
2018-07-12T12:02:23.773Z,59.00
2018-07-12T12:04:53.023Z,58.10
2018-07-12T12:07:22.103Z,59.20
2018-07-12T12:12:20.155Z,58.10
2018-07-12T12:14:49.172Z,59.00
2018-07-12T12:17:18.273Z,58.20
2018-07-12T12:19:47.412Z,60.00
2018-07-12T12:22:16.390Z,58.10
2018-07-12T12:24:45.433Z,57.20
2018-07-12T12:27:14.463Z,57.40
2018-07-12T12:29:43.517Z,56.00
2018-07-12T12:32:12.483Z,56.20
2018-07-12T12:34:41.579Z,56.80
2018-07-12T12:37:10.632Z,57.50
2018-07-12T12:39:39.745Z,57.80
2018-07-12T12:42:09.479Z,57.20
2018-07-12T12:44:38.573Z,56.40
2018-07-12T12:47:07.663Z,56.40
2018-07-12T12:49:36.727Z,58.50
2018-07-12T12:52:05.759Z,56.30
2018-07-12T12:54:34.751Z,56.20
2018-07-12T12:57:03.745Z,57.10
2018-07-12T12:59:32.835Z,56.80
2018-07-12T13:02:01.869Z,56.90
2018-07-12T13:04:30.876Z,56.00
2018-07-12T13:06:59.898Z,55.70
2018-07-12T13:11:57.653Z,56.40
2018-07-12T13:14:26.721Z,57.70
2018-07-12T13:16:55.717Z,57.00
2018-07-12T13:19:24.738Z,55.40
2018-07-12T13:21:53.746Z,56.90
2018-07-12T13:24:22.793Z,56.80
2018-07-12T13:26:51.976Z,57.60
2018-07-12T13:29:21.070Z,56.50
2018-07-12T13:31:50.218Z,57.50
2018-07-12T13:34:19.330Z,57.40
2018-07-12T13:36:48.434Z,56.80
2018-07-12T13:39:17.485Z,56.00
2018-07-12T13:41:46.549Z,55.90
2018-07-12T13:44:24.759Z,54.50
2018-07-12T13:46:54.959Z,53.80
2018-07-12T13:49:24.027Z,54.10
2018-07-12T13:51:53.578Z,55.30
2018-07-12T13:54:22.674Z,55.90
2018-07-12T13:56:51.874Z,54.40
2018-07-12T13:59:20.910Z,56.30
2018-07-12T14:01:49.924Z,53.80
2018-07-12T14:04:18.910Z,54.30
2018-07-12T14:06:47.988Z,52.90
2018-07-12T14:09:17.109Z,54.30
2018-07-12T14:11:46.189Z,52.70
2018-07-12T14:14:15.289Z,53.40
2018-07-12T14:16:44.269Z,53.50
2018-07-12T14:19:13.270Z,56.00
2018-07-12T14:21:42.338Z,54.30
2018-07-12T14:24:11.349Z,52.40
2018-07-12T14:26:40.417Z,51.90
2018-07-12T14:29:09.499Z,51.20
2018-07-12T14:31:38.496Z,50.80
2018-07-12T14:34:07.591Z,52.20
2018-07-12T14:36:36.637Z,51.90
2018-07-12T14:39:07.227Z,53.40
2018-07-12T14:41:36.289Z,52.50
2018-07-12T14:44:05.413Z,52.50
2018-07-12T14:46:34.619Z,51.30
2018-07-12T14:49:03.827Z,49.10
2018-07-12T14:51:32.929Z,49.60
2018-07-12T14:54:02.141Z,50.40
2018-07-12T14:56:31.279Z,51.70
2018-07-12T14:59:00.492Z,52.40
2018-07-12T15:01:29.523Z,49.80
2018-07-12T15:03:58.535Z,49.50
2018-07-12T15:06:27.801Z,49.40
2018-07-12T15:08:56.828Z,49.80
2018-07-12T15:11:25.797Z,49.50
2018-07-12T15:13:54.781Z,50.40
2018-07-12T15:16:23.801Z,50.30
2018-07-12T15:18:52.823Z,51.30
2018-07-12T15:21:21.823Z,52.10
2018-07-12T15:23:50.802Z,52.00
2018-07-12T15:26:19.873Z,52.10
2018-07-12T15:28:48.889Z,52.70
2018-07-12T15:31:17.909Z,53.00
2018-07-12T15:33:46.881Z,53.70
2018-07-12T15:38:44.538Z,51.60
2018-07-12T15:41:13.589Z,52.50
2018-07-12T15:43:42.678Z,52.60
2018-07-12T15:46:11.676Z,52.90
2018-07-12T15:48:40.718Z,52.40
2018-07-12T15:51:09.725Z,53.20
2018-07-12T15:53:38.861Z,52.60
2018-07-12T15:56:07.807Z,53.20
2018-07-12T15:58:36.792Z,53.00
2018-07-12T16:01:05.886Z,52.90
2018-07-12T16:03:34.924Z,51.90
2018-07-12T16:06:04.027Z,52.20
2018-07-12T16:08:33.122Z,52.40
2018-07-12T16:11:02.183Z,51.90
2018-07-12T16:13:31.249Z,52.70
2018-07-12T16:16:00.290Z,52.70
2018-07-12T16:18:29.402Z,53.30
2018-07-12T16:20:58.448Z,53.30
2018-07-12T16:23:27.445Z,53.00
2018-07-12T16:25:56.428Z,53.00
2018-07-12T16:28:25.463Z,50.70
2018-07-12T16:30:54.470Z,50.90
2018-07-12T16:33:23.440Z,51.80
2018-07-12T16:35:52.478Z,50.70
2018-07-12T16:38:21.454Z,50.90
2018-07-12T16:40:50.513Z,51.40
2018-07-12T16:43:19.526Z,51.70
2018-07-12T16:45:48.480Z,52.50
2018-07-12T16:48:17.482Z,52.40
2018-07-12T16:50:46.573Z,52.30
2018-07-12T16:53:15.572Z,53.10
2018-07-12T16:55:44.658Z,52.10
2018-07-12T16:58:13.707Z,52.50
2018-07-12T17:00:42.783Z,53.10
2018-07-12T17:03:11.838Z,52.70
2018-07-12T17:05:40.870Z,52.30
2018-07-12T17:08:09.885Z,52.60
2018-07-12T17:10:39.394Z,52.70
2018-07-12T17:13:08.611Z,53.50
2018-07-12T17:15:37.646Z,52.50
2018-07-12T17:18:06.662Z,52.90
2018-07-12T17:23:04.374Z,53.60
2018-07-12T17:25:34.210Z,53.70
2018-07-12T17:28:03.360Z,53.20
2018-07-12T17:30:32.398Z,53.60
2018-07-12T17:33:01.550Z,52.90
2018-07-12T17:35:30.575Z,52.80
2018-07-12T17:37:59.596Z,52.50
2018-07-12T17:40:28.581Z,53.10
2018-07-12T17:42:57.597Z,53.50
2018-07-12T17:45:26.594Z,52.80
2018-07-12T17:47:55.625Z,52.50
2018-07-12T17:50:24.768Z,53.10
2018-07-12T17:52:53.809Z,52.60
2018-07-12T17:55:22.837Z,52.60
2018-07-12T17:57:51.810Z,53.10
2018-07-12T18:00:20.823Z,52.80
2018-07-12T18:02:50.276Z,52.90
2018-07-12T18:05:19.281Z,53.00
2018-07-12T18:07:48.234Z,52.80
2018-07-12T18:10:17.583Z,53.10
2018-07-12T18:12:46.734Z,53.50
2018-07-12T18:15:15.818Z,53.60
2018-07-12T18:17:44.833Z,53.80
2018-07-12T18:20:14.113Z,53.80
2018-07-12T18:22:43.146Z,53.70
2018-07-12T18:27:41.413Z,54.20
2018-07-12T18:30:10.413Z,53.90
2018-07-12T18:32:39.689Z,54.20
2018-07-12T18:35:08.763Z,53.90
2018-07-12T18:37:38.118Z,54.50
2018-07-12T18:40:07.133Z,54.30
2018-07-12T18:42:36.733Z,54.40
2018-07-12T18:45:05.742Z,54.40
2018-07-12T18:47:34.839Z,54.50
2018-07-12T18:50:04.035Z,54.50
2018-07-12T18:52:33.365Z,54.50
2018-07-12T18:55:02.333Z,54.60
2018-07-12T18:57:31.357Z,54.40
2018-07-12T19:00:00.374Z,54.30
2018-07-12T19:05:29.231Z,54.30
2018-07-12T19:07:58.327Z,54.10
2018-07-12T19:10:27.297Z,54.20
2018-07-12T19:12:56.325Z,54.40
2018-07-12T19:15:25.317Z,54.60
2018-07-12T19:17:54.408Z,54.80
2018-07-12T19:20:23.422Z,55.00
2018-07-12T19:22:52.493Z,55.30
2018-07-12T19:25:21.629Z,55.50
2018-07-12T19:27:50.642Z,55.30
2018-07-12T19:30:19.571Z,56.00
2018-07-12T19:32:48.581Z,56.20
2018-07-12T19:35:17.685Z,56.10
2018-07-12T19:37:46.701Z,56.00
2018-07-12T19:40:15.749Z,56.40
2018-07-12T19:42:44.792Z,56.70
2018-07-12T19:45:13.789Z,57.10
2018-07-12T19:47:42.832Z,57.40
2018-07-12T19:50:12.005Z,57.20
2018-07-12T19:52:41.030Z,57.90
2018-07-12T19:55:10.118Z,57.30
2018-07-12T19:57:39.139Z,57.40
2018-07-12T20:00:08.180Z,57.70
2018-07-12T20:02:37.224Z,58.30
2018-07-12T20:05:06.212Z,58.60
2018-07-12T20:07:35.179Z,58.50
2018-07-12T20:12:32.840Z,58.00
2018-07-12T20:15:01.840Z,59.50
2018-07-12T20:19:59.504Z,62.00
2018-07-12T20:22:28.584Z,59.90
2018-07-12T20:24:57.626Z,61.60
2018-07-12T20:27:26.588Z,62.60
2018-07-12T20:29:55.714Z,63.90
2018-07-12T20:32:24.772Z,64.00
2018-07-12T20:34:53.787Z,63.80
2018-07-12T20:37:22.760Z,63.90
2018-07-12T20:39:51.714Z,64.70
2018-07-12T20:42:20.722Z,64.60
2018-07-12T20:44:49.756Z,65.60
2018-07-12T20:47:18.772Z,64.70
2018-07-12T20:49:47.714Z,66.00
2018-07-12T20:52:16.718Z,64.10
2018-07-12T20:54:45.781Z,65.40
2018-07-12T20:57:15.466Z,65.70
2018-07-12T20:59:44.460Z,65.50
2018-07-12T21:02:13.441Z,65.90
2018-07-12T21:04:42.437Z,65.80
2018-07-12T21:07:11.448Z,64.10
2018-07-12T21:09:40.413Z,66.30
2018-07-12T21:12:09.413Z,64.90
2018-07-12T21:14:38.445Z,64.90
2018-07-12T21:17:07.418Z,64.50
2018-07-12T21:19:36.396Z,65.40
2018-07-12T21:22:05.384Z,65.90
2018-07-12T21:24:34.378Z,65.60
2018-07-12T21:27:03.367Z,64.70
2018-07-12T21:29:32.357Z,64.60
2018-07-12T21:32:01.442Z,65.90
2018-07-12T21:34:30.450Z,66.70
2018-07-12T21:36:59.422Z,65.50
2018-07-12T21:39:28.378Z,66.20
2018-07-12T21:41:57.445Z,69.20
2018-07-12T21:44:26.559Z,69.10
2018-07-12T21:46:55.840Z,67.00
2018-07-12T21:49:25.514Z,68.80
2018-07-12T21:51:54.504Z,69.60
2018-07-12T21:54:23.528Z,70.90
2018-07-12T21:56:52.624Z,68.80
2018-07-12T21:59:21.589Z,68.80
2018-07-12T22:01:50.597Z,70.20
2018-07-12T22:04:19.608Z,69.80
2018-07-12T22:07:02.122Z,68.50
2018-07-12T22:09:32.261Z,69.50
2018-07-12T22:12:01.288Z,71.20
2018-07-12T22:14:30.285Z,70.00
2018-07-12T22:16:59.271Z,73.20
2018-07-12T22:19:28.380Z,73.80
2018-07-12T22:21:57.433Z,72.10
2018-07-12T22:24:26.446Z,72.00
2018-07-12T22:26:55.453Z,72.60
2018-07-12T22:29:24.435Z,71.50
2018-07-12T22:31:53.421Z,74.50
2018-07-12T22:34:22.477Z,73.50
2018-07-12T22:36:51.445Z,72.90
2018-07-12T22:39:20.402Z,74.40
2018-07-12T22:41:49.510Z,75.50
2018-07-12T22:44:18.565Z,71.90
2018-07-12T22:46:47.564Z,73.60
2018-07-12T22:49:16.528Z,74.30
2018-07-12T22:51:45.500Z,73.90
2018-07-12T22:56:43.162Z,76.50
2018-07-12T22:59:12.146Z,75.90
2018-07-12T23:01:41.162Z,74.80
2018-07-12T23:04:10.122Z,74.40
2018-07-12T23:06:39.162Z,73.80
2018-07-12T23:09:08.280Z,73.70
2018-07-12T23:11:37.249Z,74.00
2018-07-12T23:16:35.218Z,73.00
2018-07-12T23:19:04.190Z,73.80
2018-07-12T23:21:33.190Z,73.20
2018-07-12T23:24:02.232Z,74.70
2018-07-12T23:26:31.422Z,71.10
2018-07-12T23:29:00.448Z,71.80
2018-07-12T23:31:29.524Z,73.90
2018-07-12T23:33:58.518Z,71.50
2018-07-12T23:36:27.581Z,73.00
2018-07-12T23:38:56.591Z,75.10
2018-07-12T23:41:25.828Z,72.20
2018-07-12T23:43:54.909Z,76.40
2018-07-12T23:46:23.923Z,76.60
2018-07-12T23:48:52.968Z,75.30
2018-07-12T23:51:21.952Z,76.80
2018-07-12T23:53:51.045Z,77.90
2018-07-12T23:56:20.148Z,76.20
2018-07-12T23:58:49.374Z,78.00
